sensor_id;sensor_type;location;lat;lon;timestamp;P1;durP1;ratioP1;P2;durP2;ratioP2
23370;SDS011;11858;51.056;3.712;2022-12-18T00:01:36;184.05;;;105.65;;
23370;SDS011;11858;51.056;3.712;2022-12-18T00:04:03;175.43;;;103.05;;
23370;SDS011;11858;51.056;3.712;2022-12-18T00:06:30;167.10;;;99.65;;
23370;SDS011;11858;51.056;3.712;2022-12-18T00:08:57;172.77;;;101.65;;
23370;SDS011;11858;51.056;3.712;2022-12-18T00:11:25;183.27;;;104.90;;
23370;SDS011;11858;51.056;3.712;2022-12-18T00:13:53;184.35;;;105.28;;
23370;SDS011;11858;51.056;3.712;2022-12-18T00:16:21;187.73;;;106.65;;
23370;SDS011;11858;51.056;3.712;2022-12-18T00:18:49;184.30;;;104.88;;
23370;SDS011;11858;51.056;3.712;2022-12-18T00:21:17;180.20;;;105.60;;
23370;SDS011;11858;51.056;3.712;2022-12-18T00:23:44;184.63;;;106.20;;
23370;SDS011;11858;51.056;3.712;2022-12-18T00:26:11;185.88;;;106.97;;
23370;SDS011;11858;51.056;3.712;2022-12-18T00:28:40;186.75;;;105.30;;
23370;SDS011;11858;51.056;3.712;2022-12-18T00:31:09;175.52;;;99.55;;
23370;SDS011;11858;51.056;3.712;2022-12-18T00:36:03;172.98;;;97.43;;
23370;SDS011;11858;51.056;3.712;2022-12-18T00:38:31;169.10;;;96.28;;
23370;SDS011;11858;51.056;3.712;2022-12-18T00:40:57;167.70;;;93.38;;
23370;SDS011;11858;51.056;3.712;2022-12-18T00:43:23;161.98;;;93.28;;
23370;SDS011;11858;51.056;3.712;2022-12-18T00:45:49;172.07;;;96.25;;
23370;SDS011;11858;51.056;3.712;2022-12-18T00:48:15;155.57;;;92.22;;
23370;SDS011;11858;51.056;3.712;2022-12-18T00:50:40;173.88;;;93.20;;
23370;SDS011;11858;51.056;3.712;2022-12-18T00:53:06;169.00;;;94.63;;
23370;SDS011;11858;51.056;3.712;2022-12-18T00:55:32;159.68;;;93.13;;
23370;SDS011;11858;51.056;3.712;2022-12-18T00:57:57;159.45;;;93.97;;
23370;SDS011;11858;51.056;3.712;2022-12-18T01:00:23;164.90;;;90.72;;
23370;SDS011;11858;51.056;3.712;2022-12-18T01:02:49;166.13;;;90.95;;
23370;SDS011;11858;51.056;3.712;2022-12-18T01:05:14;166.20;;;92.20;;
23370;SDS011;11858;51.056;3.712;2022-12-18T01:07:40;164.20;;;91.03;;
23370;SDS011;11858;51.056;3.712;2022-12-18T01:10:07;172.07;;;92.55;;
23370;SDS011;11858;51.056;3.712;2022-12-18T01:12:35;160.38;;;89.63;;
23370;SDS011;11858;51.056;3.712;2022-12-18T01:15:01;160.85;;;88.13;;
23370;SDS011;11858;51.056;3.712;2022-12-18T01:17:27;156.05;;;89.05;;
23370;SDS011;11858;51.056;3.712;2022-12-18T01:19:53;150.27;;;84.47;;
23370;SDS011;11858;51.056;3.712;2022-12-18T01:22:18;153.15;;;86.47;;
23370;SDS011;11858;51.056;3.712;2022-12-18T01:24:44;158.02;;;88.63;;
23370;SDS011;11858;51.056;3.712;2022-12-18T01:27:10;151.48;;;88.35;;
23370;SDS011;11858;51.056;3.712;2022-12-18T01:29:35;155.48;;;85.43;;
23370;SDS011;11858;51.056;3.712;2022-12-18T01:32:01;154.05;;;85.63;;
23370;SDS011;11858;51.056;3.712;2022-12-18T01:34:27;149.85;;;84.78;;
23370;SDS011;11858;51.056;3.712;2022-12-18T01:36:52;145.68;;;84.15;;
23370;SDS011;11858;51.056;3.712;2022-12-18T01:39:18;147.77;;;86.88;;
23370;SDS011;11858;51.056;3.712;2022-12-18T01:41:44;139.75;;;79.05;;
23370;SDS011;11858;51.056;3.712;2022-12-18T01:49:50;144.80;;;81.22;;
23370;SDS011;11858;51.056;3.712;2022-12-18T01:52:17;134.23;;;78.70;;
23370;SDS011;11858;51.056;3.712;2022-12-18T01:54:45;131.98;;;76.93;;
23370;SDS011;11858;51.056;3.712;2022-12-18T01:57:12;131.02;;;77.47;;
23370;SDS011;11858;51.056;3.712;2022-12-18T01:59:38;133.07;;;78.95;;
23370;SDS011;11858;51.056;3.712;2022-12-18T02:02:06;140.30;;;78.00;;
23370;SDS011;11858;51.056;3.712;2022-12-18T02:04:32;135.65;;;78.22;;
23370;SDS011;11858;51.056;3.712;2022-12-18T02:07:42;132.55;;;79.13;;
23370;SDS011;11858;51.056;3.712;2022-12-18T02:19:06;131.57;;;77.68;;
23370;SDS011;11858;51.056;3.712;2022-12-18T02:27:10;134.35;;;80.03;;
23370;SDS011;11858;51.056;3.712;2022-12-18T02:29:42;123.30;;;77.50;;
23370;SDS011;11858;51.056;3.712;2022-12-18T02:32:14;130.45;;;80.38;;
23370;SDS011;11858;51.056;3.712;2022-12-18T02:34:44;101.20;;;65.13;;
23370;SDS011;11858;51.056;3.712;2022-12-18T02:37:12;123.20;;;74.68;;
23370;SDS011;11858;51.056;3.712;2022-12-18T02:39:41;103.47;;;65.83;;
23370;SDS011;11858;51.056;3.712;2022-12-18T02:42:09;128.23;;;75.68;;
23370;SDS011;11858;51.056;3.712;2022-12-18T02:44:46;120.85;;;75.88;;
23370;SDS011;11858;51.056;3.712;2022-12-18T02:47:14;126.40;;;77.15;;
23370;SDS011;11858;51.056;3.712;2022-12-18T02:55:26;118.85;;;73.20;;
23370;SDS011;11858;51.056;3.712;2022-12-18T02:57:54;116.28;;;71.55;;
23370;SDS011;11858;51.056;3.712;2022-12-18T03:00:33;124.63;;;78.07;;
23370;SDS011;11858;51.056;3.712;2022-12-18T03:05:50;111.43;;;74.35;;
23370;SDS011;11858;51.056;3.712;2022-12-18T03:08:24;120.22;;;69.50;;
23370;SDS011;11858;51.056;3.712;2022-12-18T03:10:58;123.75;;;75.53;;
23370;SDS011;11858;51.056;3.712;2022-12-18T03:13:37;110.93;;;68.07;;
23370;SDS011;11858;51.056;3.712;2022-12-18T03:16:15;111.45;;;71.47;;
23370;SDS011;11858;51.056;3.712;2022-12-18T03:21:53;109.22;;;68.07;;
23370;SDS011;11858;51.056;3.712;2022-12-18T03:24:21;112.78;;;68.53;;
23370;SDS011;11858;51.056;3.712;2022-12-18T03:26:50;110.50;;;68.05;;
23370;SDS011;11858;51.056;3.712;2022-12-18T03:29:24;108.07;;;69.25;;
23370;SDS011;11858;51.056;3.712;2022-12-18T03:31:54;109.60;;;69.90;;
23370;SDS011;11858;51.056;3.712;2022-12-18T03:34:33;102.40;;;65.85;;
23370;SDS011;11858;51.056;3.712;2022-12-18T03:37:02;106.82;;;65.82;;
23370;SDS011;11858;51.056;3.712;2022-12-18T03:39:28;106.45;;;68.47;;
23370;SDS011;11858;51.056;3.712;2022-12-18T03:47:45;105.78;;;67.20;;
23370;SDS011;11858;51.056;3.712;2022-12-18T03:54:17;106.97;;;65.25;;
23370;SDS011;11858;51.056;3.712;2022-12-18T03:56:47;105.97;;;65.82;;
23370;SDS011;11858;51.056;3.712;2022-12-18T03:59:19;104.03;;;65.10;;
23370;SDS011;11858;51.056;3.712;2022-12-18T04:01:47;106.65;;;80.55;;
23370;SDS011;11858;51.056;3.712;2022-12-18T04:04:15;114.45;;;81.78;;
23370;SDS011;11858;51.056;3.712;2022-12-18T04:06:42;111.32;;;82.13;;
23370;SDS011;11858;51.056;3.712;2022-12-18T04:09:10;110.95;;;80.25;;
23370;SDS011;11858;51.056;3.712;2022-12-18T04:11:36;110.55;;;81.18;;
23370;SDS011;11858;51.056;3.712;2022-12-18T04:14:01;114.50;;;80.53;;
23370;SDS011;11858;51.056;3.712;2022-12-18T04:16:27;109.00;;;81.40;;
23370;SDS011;11858;51.056;3.712;2022-12-18T04:18:53;112.43;;;80.63;;
23370;SDS011;11858;51.056;3.712;2022-12-18T04:21:19;121.60;;;82.47;;
23370;SDS011;11858;51.056;3.712;2022-12-18T04:23:45;114.50;;;81.95;;
23370;SDS011;11858;51.056;3.712;2022-12-18T04:26:11;112.15;;;81.97;;
23370;SDS011;11858;51.056;3.712;2022-12-18T04:28:37;113.05;;;81.38;;
23370;SDS011;11858;51.056;3.712;2022-12-18T04:31:02;110.65;;;79.40;;
23370;SDS011;11858;51.056;3.712;2022-12-18T04:33:28;114.55;;;80.93;;
23370;SDS011;11858;51.056;3.712;2022-12-18T04:35:54;108.03;;;80.68;;
23370;SDS011;11858;51.056;3.712;2022-12-18T04:38:19;107.20;;;77.18;;
23370;SDS011;11858;51.056;3.712;2022-12-18T04:40:45;106.38;;;80.60;;
23370;SDS011;11858;51.056;3.712;2022-12-18T04:43:11;109.95;;;80.78;;
23370;SDS011;11858;51.056;3.712;2022-12-18T04:45:36;105.60;;;78.70;;
23370;SDS011;11858;51.056;3.712;2022-12-18T04:48:02;113.55;;;82.00;;
23370;SDS011;11858;51.056;3.712;2022-12-18T04:50:29;102.93;;;78.15;;
23370;SDS011;11858;51.056;3.712;2022-12-18T04:52:55;106.82;;;80.03;;
23370;SDS011;11858;51.056;3.712;2022-12-18T04:55:21;106.70;;;79.93;;
23370;SDS011;11858;51.056;3.712;2022-12-18T04:57:47;106.03;;;78.38;;
23370;SDS011;11858;51.056;3.712;2022-12-18T05:00:13;104.20;;;78.35;;
23370;SDS011;11858;51.056;3.712;2022-12-18T05:02:39;108.50;;;79.25;;
23370;SDS011;11858;51.056;3.712;2022-12-18T05:05:05;102.20;;;76.32;;
23370;SDS011;11858;51.056;3.712;2022-12-18T05:07:31;109.32;;;84.13;;
23370;SDS011;11858;51.056;3.712;2022-12-18T05:09:56;104.00;;;77.95;;
23370;SDS011;11858;51.056;3.712;2022-12-18T05:12:24;102.57;;;78.60;;
23370;SDS011;11858;51.056;3.712;2022-12-18T05:14:49;106.78;;;77.70;;
23370;SDS011;11858;51.056;3.712;2022-12-18T05:17:15;100.95;;;76.55;;
23370;SDS011;11858;51.056;3.712;2022-12-18T05:19:41;97.57;;;75.35;;
23370;SDS011;11858;51.056;3.712;2022-12-18T05:22:06;102.13;;;78.50;;
23370;SDS011;11858;51.056;3.712;2022-12-18T05:24:32;98.28;;;77.72;;
23370;SDS011;11858;51.056;3.712;2022-12-18T05:26:58;94.95;;;75.88;;
23370;SDS011;11858;51.056;3.712;2022-12-18T05:29:24;96.82;;;75.05;;
23370;SDS011;11858;51.056;3.712;2022-12-18T05:31:50;99.95;;;78.65;;
23370;SDS011;11858;51.056;3.712;2022-12-18T05:34:16;103.72;;;77.63;;
23370;SDS011;11858;51.056;3.712;2022-12-18T05:36:41;94.22;;;73.15;;
23370;SDS011;11858;51.056;3.712;2022-12-18T05:39:07;97.68;;;75.88;;
23370;SDS011;11858;51.056;3.712;2022-12-18T05:41:33;97.85;;;76.25;;
23370;SDS011;11858;51.056;3.712;2022-12-18T05:43:59;94.28;;;75.10;;
23370;SDS011;11858;51.056;3.712;2022-12-18T05:46:25;99.15;;;74.47;;
23370;SDS011;11858;51.056;3.712;2022-12-18T05:48:51;95.78;;;73.68;;
23370;SDS011;11858;51.056;3.712;2022-12-18T05:51:18;95.30;;;73.88;;
23370;SDS011;11858;51.056;3.712;2022-12-18T05:53:45;99.50;;;71.05;;
23370;SDS011;11858;51.056;3.712;2022-12-18T05:56:13;93.28;;;72.55;;
23370;SDS011;11858;51.056;3.712;2022-12-18T05:58:40;91.30;;;72.57;;
23370;SDS011;11858;51.056;3.712;2022-12-18T06:01:14;91.05;;;73.90;;
23370;SDS011;11858;51.056;3.712;2022-12-18T06:03:41;92.47;;;75.18;;
23370;SDS011;11858;51.056;3.712;2022-12-18T06:06:17;88.93;;;72.43;;
23370;SDS011;11858;51.056;3.712;2022-12-18T06:08:45;92.22;;;73.28;;
23370;SDS011;11858;51.056;3.712;2022-12-18T06:11:13;88.50;;;74.28;;
23370;SDS011;11858;51.056;3.712;2022-12-18T06:13:41;89.80;;;72.35;;
23370;SDS011;11858;51.056;3.712;2022-12-18T06:16:07;91.97;;;74.35;;
23370;SDS011;11858;51.056;3.712;2022-12-18T06:18:33;90.25;;;74.85;;
23370;SDS011;11858;51.056;3.712;2022-12-18T06:20:59;88.75;;;73.93;;
23370;SDS011;11858;51.056;3.712;2022-12-18T06:23:25;89.88;;;75.00;;
23370;SDS011;11858;51.056;3.712;2022-12-18T06:25:51;91.30;;;75.47;;
23370;SDS011;11858;51.056;3.712;2022-12-18T06:28:17;84.25;;;72.65;;
23370;SDS011;11858;51.056;3.712;2022-12-18T06:30:43;87.18;;;74.10;;
23370;SDS011;11858;51.056;3.712;2022-12-18T06:33:10;88.80;;;73.32;;
23370;SDS011;11858;51.056;3.712;2022-12-18T06:35:35;87.15;;;74.10;;
23370;SDS011;11858;51.056;3.712;2022-12-18T06:38:02;85.55;;;71.72;;
23370;SDS011;11858;51.056;3.712;2022-12-18T06:40:28;80.63;;;69.63;;
23370;SDS011;11858;51.056;3.712;2022-12-18T06:42:54;81.28;;;70.47;;
23370;SDS011;11858;51.056;3.712;2022-12-18T06:45:20;80.28;;;56.33;;
23370;SDS011;11858;51.056;3.712;2022-12-18T06:47:45;80.47;;;57.60;;
23370;SDS011;11858;51.056;3.712;2022-12-18T06:50:11;76.90;;;56.58;;
23370;SDS011;11858;51.056;3.712;2022-12-18T06:52:37;79.10;;;57.92;;
23370;SDS011;11858;51.056;3.712;2022-12-18T06:55:05;80.38;;;58.50;;
23370;SDS011;11858;51.056;3.712;2022-12-18T06:57:35;80.00;;;58.90;;
23370;SDS011;11858;51.056;3.712;2022-12-18T07:00:02;77.38;;;57.25;;
23370;SDS011;11858;51.056;3.712;2022-12-18T07:02:30;72.75;;;56.22;;
23370;SDS011;11858;51.056;3.712;2022-12-18T07:04:56;77.05;;;57.83;;
23370;SDS011;11858;51.056;3.712;2022-12-18T07:07:21;75.10;;;56.78;;
23370;SDS011;11858;51.056;3.712;2022-12-18T07:09:48;70.30;;;56.40;;
23370;SDS011;11858;51.056;3.712;2022-12-18T07:12:14;69.75;;;54.67;;
23370;SDS011;11858;51.056;3.712;2022-12-18T07:14:40;74.00;;;60.35;;
23370;SDS011;11858;51.056;3.712;2022-12-18T07:17:05;75.32;;;55.58;;
23370;SDS011;11858;51.056;3.712;2022-12-18T07:19:31;74.60;;;60.53;;
23370;SDS011;11858;51.056;3.712;2022-12-18T07:21:57;71.43;;;54.63;;
23370;SDS011;11858;51.056;3.712;2022-12-18T07:24:23;70.10;;;54.63;;
23370;SDS011;11858;51.056;3.712;2022-12-18T07:26:48;72.53;;;55.00;;
23370;SDS011;11858;51.056;3.712;2022-12-18T07:29:14;72.32;;;54.55;;
23370;SDS011;11858;51.056;3.712;2022-12-18T07:31:40;76.75;;;58.60;;
23370;SDS011;11858;51.056;3.712;2022-12-18T07:34:09;70.55;;;54.88;;
23370;SDS011;11858;51.056;3.712;2022-12-18T07:36:37;69.35;;;53.63;;
23370;SDS011;11858;51.056;3.712;2022-12-18T07:39:03;73.05;;;54.53;;
23370;SDS011;11858;51.056;3.712;2022-12-18T07:41:29;70.18;;;53.60;;
23370;SDS011;11858;51.056;3.712;2022-12-18T07:43:54;70.28;;;54.22;;
23370;SDS011;11858;51.056;3.712;2022-12-18T07:46:23;70.82;;;53.95;;
23370;SDS011;11858;51.056;3.712;2022-12-18T07:48:49;69.28;;;55.28;;
23370;SDS011;11858;51.056;3.712;2022-12-18T07:51:14;71.63;;;55.28;;
23370;SDS011;11858;51.056;3.712;2022-12-18T07:53:40;66.72;;;54.55;;
23370;SDS011;11858;51.056;3.712;2022-12-18T07:56:09;68.53;;;52.28;;
23370;SDS011;11858;51.056;3.712;2022-12-18T07:58:36;68.05;;;53.90;;
23370;SDS011;11858;51.056;3.712;2022-12-18T08:01:11;66.85;;;54.08;;
23370;SDS011;11858;51.056;3.712;2022-12-18T08:03:38;65.53;;;53.28;;
23370;SDS011;11858;51.056;3.712;2022-12-18T08:06:05;69.10;;;53.38;;
23370;SDS011;11858;51.056;3.712;2022-12-18T08:08:34;68.97;;;54.28;;
23370;SDS011;11858;51.056;3.712;2022-12-18T08:11:00;66.13;;;53.22;;
23370;SDS011;11858;51.056;3.712;2022-12-18T08:13:27;65.47;;;53.03;;
23370;SDS011;11858;51.056;3.712;2022-12-18T08:15:59;65.63;;;53.20;;
23370;SDS011;11858;51.056;3.712;2022-12-18T08:18:31;67.35;;;52.83;;
23370;SDS011;11858;51.056;3.712;2022-12-18T08:20:57;62.00;;;50.83;;
23370;SDS011;11858;51.056;3.712;2022-12-18T08:23:32;60.97;;;50.60;;
23370;SDS011;11858;51.056;3.712;2022-12-18T08:25:58;64.22;;;51.97;;
23370;SDS011;11858;51.056;3.712;2022-12-18T08:28:23;61.17;;;51.90;;
23370;SDS011;11858;51.056;3.712;2022-12-18T08:30:51;58.90;;;50.88;;
23370;SDS011;11858;51.056;3.712;2022-12-18T08:33:17;58.05;;;48.85;;
23370;SDS011;11858;51.056;3.712;2022-12-18T08:35:42;63.38;;;51.45;;
23370;SDS011;11858;51.056;3.712;2022-12-18T08:38:08;57.08;;;49.53;;
23370;SDS011;11858;51.056;3.712;2022-12-18T08:40:34;60.83;;;48.13;;
23370;SDS011;11858;51.056;3.712;2022-12-18T08:42:59;59.38;;;48.45;;
23370;SDS011;11858;51.056;3.712;2022-12-18T08:45:44;54.80;;;46.80;;
23370;SDS011;11858;51.056;3.712;2022-12-18T08:48:09;56.90;;;48.42;;
23370;SDS011;11858;51.056;3.712;2022-12-18T08:50:35;59.10;;;47.22;;
23370;SDS011;11858;51.056;3.712;2022-12-18T08:53:01;57.17;;;46.28;;
23370;SDS011;11858;51.056;3.712;2022-12-18T08:55:27;54.92;;;44.53;;
23370;SDS011;11858;51.056;3.712;2022-12-18T08:57:53;57.17;;;47.13;;
23370;SDS011;11858;51.056;3.712;2022-12-18T09:00:18;59.90;;;47.60;;
23370;SDS011;11858;51.056;3.712;2022-12-18T09:02:44;57.78;;;46.85;;
23370;SDS011;11858;51.056;3.712;2022-12-18T09:05:10;54.72;;;46.67;;
23370;SDS011;11858;51.056;3.712;2022-12-18T09:07:36;54.53;;;46.20;;
23370;SDS011;11858;51.056;3.712;2022-12-18T09:10:02;56.47;;;47.25;;
23370;SDS011;11858;51.056;3.712;2022-12-18T09:12:28;58.83;;;47.60;;
23370;SDS011;11858;51.056;3.712;2022-12-18T09:14:54;60.75;;;49.08;;
23370;SDS011;11858;51.056;3.712;2022-12-18T09:17:21;61.15;;;49.65;;
23370;SDS011;11858;51.056;3.712;2022-12-18T09:19:47;57.83;;;48.45;;
23370;SDS011;11858;51.056;3.712;2022-12-18T09:22:12;53.58;;;47.67;;
23370;SDS011;11858;51.056;3.712;2022-12-18T09:24:38;58.03;;;51.63;;
23370;SDS011;11858;51.056;3.712;2022-12-18T09:27:04;53.95;;;46.40;;
23370;SDS011;11858;51.056;3.712;2022-12-18T09:29:29;55.85;;;48.03;;
23370;SDS011;11858;51.056;3.712;2022-12-18T09:31:55;53.05;;;47.03;;
23370;SDS011;11858;51.056;3.712;2022-12-18T09:34:21;57.38;;;47.25;;
23370;SDS011;11858;51.056;3.712;2022-12-18T09:36:47;53.42;;;46.47;;
23370;SDS011;11858;51.056;3.712;2022-12-18T09:39:13;52.42;;;45.70;;
23370;SDS011;11858;51.056;3.712;2022-12-18T09:47:16;57.63;;;46.42;;
23370;SDS011;11858;51.056;3.712;2022-12-18T09:49:53;53.08;;;45.22;;
23370;SDS011;11858;51.056;3.712;2022-12-18T09:57:39;55.80;;;46.42;;
23370;SDS011;11858;51.056;3.712;2022-12-18T10:00:19;59.25;;;46.13;;
23370;SDS011;11858;51.056;3.712;2022-12-18T10:02:47;54.15;;;45.58;;
23370;SDS011;11858;51.056;3.712;2022-12-18T10:05:16;54.97;;;46.35;;
23370;SDS011;11858;51.056;3.712;2022-12-18T10:08:10;55.80;;;45.35;;
23370;SDS011;11858;51.056;3.712;2022-12-18T10:10:48;54.40;;;46.97;;
23370;SDS011;11858;51.056;3.712;2022-12-18T10:21:47;57.70;;;45.05;;
23370;SDS011;11858;51.056;3.712;2022-12-18T10:27:15;56.80;;;47.60;;
23370;SDS011;11858;51.056;3.712;2022-12-18T10:29:43;54.75;;;46.83;;
23370;SDS011;11858;51.056;3.712;2022-12-18T10:32:14;54.63;;;45.67;;
23370;SDS011;11858;51.056;3.712;2022-12-18T10:34:45;56.88;;;47.28;;
23370;SDS011;11858;51.056;3.712;2022-12-18T10:37:14;57.70;;;47.17;;
23370;SDS011;11858;51.056;3.712;2022-12-18T10:39:43;52.72;;;45.15;;
23370;SDS011;11858;51.056;3.712;2022-12-18T10:42:11;53.78;;;45.85;;
23370;SDS011;11858;51.056;3.712;2022-12-18T10:44:46;55.33;;;47.10;;
23370;SDS011;11858;51.056;3.712;2022-12-18T10:47:27;50.70;;;43.95;;
23370;SDS011;11858;51.056;3.712;2022-12-18T10:49:53;52.13;;;44.88;;
23370;SDS011;11858;51.056;3.712;2022-12-18T10:52:21;51.35;;;45.55;;
23370;SDS011;11858;51.056;3.712;2022-12-18T10:54:50;53.58;;;45.03;;
23370;SDS011;11858;51.056;3.712;2022-12-18T11:00:18;52.80;;;44.08;;
23370;SDS011;11858;51.056;3.712;2022-12-18T11:02:47;55.85;;;46.03;;
23370;SDS011;11858;51.056;3.712;2022-12-18T11:05:32;52.88;;;46.33;;
23370;SDS011;11858;51.056;3.712;2022-12-18T11:07:59;53.35;;;47.55;;
23370;SDS011;11858;51.056;3.712;2022-12-18T11:10:28;54.42;;;46.78;;
23370;SDS011;11858;51.056;3.712;2022-12-18T11:13:11;56.92;;;46.55;;
23370;SDS011;11858;51.056;3.712;2022-12-18T11:15:43;57.88;;;46.67;;
23370;SDS011;11858;51.056;3.712;2022-12-18T11:18:29;53.15;;;46.05;;
23370;SDS011;11858;51.056;3.712;2022-12-18T11:21:00;53.30;;;45.08;;
23370;SDS011;11858;51.056;3.712;2022-12-18T11:23:33;58.50;;;48.35;;
23370;SDS011;11858;51.056;3.712;2022-12-18T11:26:04;56.08;;;47.80;;
23370;SDS011;11858;51.056;3.712;2022-12-18T11:31:32;54.03;;;48.10;;
23370;SDS011;11858;51.056;3.712;2022-12-18T11:34:16;57.28;;;48.22;;
23370;SDS011;11858;51.056;3.712;2022-12-18T11:36:48;58.53;;;48.42;;
23370;SDS011;11858;51.056;3.712;2022-12-18T11:41:47;55.78;;;46.47;;
23370;SDS011;11858;51.056;3.712;2022-12-18T11:44:38;58.33;;;45.50;;
23370;SDS011;11858;51.056;3.712;2022-12-18T11:49:53;53.35;;;45.22;;
23370;SDS011;11858;51.056;3.712;2022-12-18T11:52:26;53.63;;;43.83;;
23370;SDS011;11858;51.056;3.712;2022-12-18T12:00:36;55.08;;;43.97;;
23370;SDS011;11858;51.056;3.712;2022-12-18T12:08:48;50.30;;;42.05;;
23370;SDS011;11858;51.056;3.712;2022-12-18T12:14:32;51.13;;;43.58;;
23370;SDS011;11858;51.056;3.712;2022-12-18T12:25:46;56.65;;;45.70;;
23370;SDS011;11858;51.056;3.712;2022-12-18T12:36:28;56.00;;;45.33;;
23370;SDS011;11858;51.056;3.712;2022-12-18T12:38:59;57.03;;;44.97;;
23370;SDS011;11858;51.056;3.712;2022-12-18T12:41:30;56.60;;;46.30;;
23370;SDS011;11858;51.056;3.712;2022-12-18T12:44:39;58.47;;;47.63;;
23370;SDS011;11858;51.056;3.712;2022-12-18T12:47:16;58.10;;;44.22;;
23370;SDS011;11858;51.056;3.712;2022-12-18T12:49:58;62.38;;;48.88;;
23370;SDS011;11858;51.056;3.712;2022-12-18T12:52:29;61.90;;;46.85;;
23370;SDS011;11858;51.056;3.712;2022-12-18T12:55:07;59.58;;;50.45;;
23370;SDS011;11858;51.056;3.712;2022-12-18T12:57:42;60.45;;;47.33;;
23370;SDS011;11858;51.056;3.712;2022-12-18T13:00:17;61.83;;;48.90;;
23370;SDS011;11858;51.056;3.712;2022-12-18T13:02:50;60.17;;;46.30;;
23370;SDS011;11858;51.056;3.712;2022-12-18T13:08:07;63.17;;;50.70;;
23370;SDS011;11858;51.056;3.712;2022-12-18T13:10:54;64.13;;;50.80;;
23370;SDS011;11858;51.056;3.712;2022-12-18T13:13:51;64.63;;;49.58;;
23370;SDS011;11858;51.056;3.712;2022-12-18T13:16:20;64.72;;;48.97;;
23370;SDS011;11858;51.056;3.712;2022-12-18T13:18:50;65.57;;;49.22;;
23370;SDS011;11858;51.056;3.712;2022-12-18T13:21:21;61.42;;;47.97;;
23370;SDS011;11858;51.056;3.712;2022-12-18T13:23:52;66.82;;;50.75;;
23370;SDS011;11858;51.056;3.712;2022-12-18T13:34:15;66.85;;;49.80;;
23370;SDS011;11858;51.056;3.712;2022-12-18T13:36:42;69.53;;;53.95;;
23370;SDS011;11858;51.056;3.712;2022-12-18T13:41:47;68.85;;;52.67;;
23370;SDS011;11858;51.056;3.712;2022-12-18T13:47:02;70.72;;;50.13;;
23370;SDS011;11858;51.056;3.712;2022-12-18T13:51:55;71.50;;;53.35;;
23370;SDS011;11858;51.056;3.712;2022-12-18T13:54:37;63.95;;;49.10;;
23370;SDS011;11858;51.056;3.712;2022-12-18T13:57:22;65.38;;;48.92;;
23370;SDS011;11858;51.056;3.712;2022-12-18T14:07:48;70.68;;;50.92;;
23370;SDS011;11858;51.056;3.712;2022-12-18T14:10:15;68.28;;;50.42;;
23370;SDS011;11858;51.056;3.712;2022-12-18T14:12:44;71.78;;;53.67;;
23370;SDS011;11858;51.056;3.712;2022-12-18T14:15:34;71.03;;;49.85;;
23370;SDS011;11858;51.056;3.712;2022-12-18T14:20:43;69.95;;;48.88;;
23370;SDS011;11858;51.056;3.712;2022-12-18T14:25:58;68.45;;;49.72;;
23370;SDS011;11858;51.056;3.712;2022-12-18T14:28:24;68.18;;;48.72;;
23370;SDS011;11858;51.056;3.712;2022-12-18T14:30:51;73.50;;;49.65;;
23370;SDS011;11858;51.056;3.712;2022-12-18T14:33:19;69.32;;;51.95;;
23370;SDS011;11858;51.056;3.712;2022-12-18T14:38:25;70.25;;;49.17;;
23370;SDS011;11858;51.056;3.712;2022-12-18T14:41:05;67.18;;;50.40;;
23370;SDS011;11858;51.056;3.712;2022-12-18T14:43:36;73.38;;;50.53;;
23370;SDS011;11858;51.056;3.712;2022-12-18T14:52:01;73.95;;;52.08;;
23370;SDS011;11858;51.056;3.712;2022-12-18T14:54:32;81.70;;;54.67;;
23370;SDS011;11858;51.056;3.712;2022-12-18T14:57:15;73.28;;;54.03;;
23370;SDS011;11858;51.056;3.712;2022-12-18T15:00:03;68.10;;;50.67;;
23370;SDS011;11858;51.056;3.712;2022-12-18T15:02:40;70.85;;;53.08;;
23370;SDS011;11858;51.056;3.712;2022-12-18T15:05:16;69.53;;;50.33;;
23370;SDS011;11858;51.056;3.712;2022-12-18T15:08:00;70.70;;;52.53;;
23370;SDS011;11858;51.056;3.712;2022-12-18T15:10:33;71.07;;;51.13;;
23370;SDS011;11858;51.056;3.712;2022-12-18T15:18:05;73.93;;;53.88;;
23370;SDS011;11858;51.056;3.712;2022-12-18T15:20:54;73.78;;;53.90;;
23370;SDS011;11858;51.056;3.712;2022-12-18T15:26:11;71.38;;;52.33;;
23370;SDS011;11858;51.056;3.712;2022-12-18T15:28:52;73.30;;;52.25;;
23370;SDS011;11858;51.056;3.712;2022-12-18T15:31:28;72.82;;;51.58;;
23370;SDS011;11858;51.056;3.712;2022-12-18T15:36:22;79.07;;;54.33;;
23370;SDS011;11858;51.056;3.712;2022-12-18T15:38:49;71.30;;;51.20;;
23370;SDS011;11858;51.056;3.712;2022-12-18T15:41:17;75.80;;;54.13;;
23370;SDS011;11858;51.056;3.712;2022-12-18T15:43:45;72.70;;;51.85;;
23370;SDS011;11858;51.056;3.712;2022-12-18T15:46:13;78.60;;;58.08;;
23370;SDS011;11858;51.056;3.712;2022-12-18T15:48:47;72.35;;;50.30;;
23370;SDS011;11858;51.056;3.712;2022-12-18T15:54:00;76.90;;;54.50;;
23370;SDS011;11858;51.056;3.712;2022-12-18T15:56:30;76.47;;;52.42;;
23370;SDS011;11858;51.056;3.712;2022-12-18T15:59:16;83.88;;;56.33;;
23370;SDS011;11858;51.056;3.712;2022-12-18T16:01:44;85.93;;;54.20;;
23370;SDS011;11858;51.056;3.712;2022-12-18T16:04:12;76.28;;;53.15;;
23370;SDS011;11858;51.056;3.712;2022-12-18T16:06:41;72.55;;;53.30;;
23370;SDS011;11858;51.056;3.712;2022-12-18T16:09:07;72.55;;;49.03;;
23370;SDS011;11858;51.056;3.712;2022-12-18T16:11:34;71.10;;;51.50;;
23370;SDS011;11858;51.056;3.712;2022-12-18T16:16:47;74.95;;;51.90;;
23370;SDS011;11858;51.056;3.712;2022-12-18T16:19:14;72.30;;;50.40;;
23370;SDS011;11858;51.056;3.712;2022-12-18T16:21:41;75.10;;;52.65;;
23370;SDS011;11858;51.056;3.712;2022-12-18T16:24:14;71.68;;;49.67;;
23370;SDS011;11858;51.056;3.712;2022-12-18T16:26:46;72.00;;;51.17;;
23370;SDS011;11858;51.056;3.712;2022-12-18T16:29:13;68.80;;;49.55;;
23370;SDS011;11858;51.056;3.712;2022-12-18T16:31:39;74.60;;;53.55;;
23370;SDS011;11858;51.056;3.712;2022-12-18T16:36:51;72.47;;;54.50;;
23370;SDS011;11858;51.056;3.712;2022-12-18T16:39:18;68.28;;;50.88;;
23370;SDS011;11858;51.056;3.712;2022-12-18T16:41:45;74.45;;;53.85;;
23370;SDS011;11858;51.056;3.712;2022-12-18T16:44:10;73.63;;;52.83;;
23370;SDS011;11858;51.056;3.712;2022-12-18T16:46:37;76.88;;;51.53;;
23370;SDS011;11858;51.056;3.712;2022-12-18T16:49:04;77.32;;;52.25;;
23370;SDS011;11858;51.056;3.712;2022-12-18T16:51:29;79.25;;;57.67;;
23370;SDS011;11858;51.056;3.712;2022-12-18T16:53:58;84.35;;;57.67;;
23370;SDS011;11858;51.056;3.712;2022-12-18T16:56:24;81.25;;;53.90;;
23370;SDS011;11858;51.056;3.712;2022-12-18T16:58:53;75.07;;;53.95;;
23370;SDS011;11858;51.056;3.712;2022-12-18T17:01:20;83.88;;;59.70;;
23370;SDS011;11858;51.056;3.712;2022-12-18T17:03:53;81.50;;;61.10;;
23370;SDS011;11858;51.056;3.712;2022-12-18T17:06:24;78.03;;;60.17;;
23370;SDS011;11858;51.056;3.712;2022-12-18T17:08:57;82.53;;;59.53;;
23370;SDS011;11858;51.056;3.712;2022-12-18T17:11:25;80.05;;;59.47;;
23370;SDS011;11858;51.056;3.712;2022-12-18T17:13:52;84.35;;;60.17;;
23370;SDS011;11858;51.056;3.712;2022-12-18T17:16:18;81.97;;;61.92;;